Time;durP1;ratioP1;P1;durP2;ratioP2;P2;SDS_P1;SDS_P2;PMS_P1;PMS_P2;Temp;Humidity;BMP_temperature;BMP_pressure;BME280_temperature;BME280_humidity;BME280_pressure;Samples;Min_cycle;Max_cycle;Signal;HPM_P1;HPM_P2
2023/08/07 00:04:01;;;;;;;5.90;2.72;;;;;;;14.87;100.00;101404.06;10499850;28;20033;-72
2023/08/07 00:09:01;;;;;;;6.22;2.70;;;;;;;14.87;100.00;101425.88;10498297;28;20040;-71
2023/08/07 00:14:02;;;;;;;5.18;2.20;;;;;;;14.64;100.00;101424.44;10498203;28;20413;-72
2023/08/07 00:19:02;;;;;;;7.15;3.22;;;;;;;14.12;100.00;101431.53;10499124;28;20120;-73
2023/08/07 00:24:03;;;;;;;14.20;2.85;;;;;;;13.77;100.00;101414.50;10498979;28;20035;-72
2023/08/07 00:29:03;;;;;;;12.18;3.67;;;;;;;13.67;100.00;101420.34;10497486;28;20029;-72
2023/08/07 00:34:04;;;;;;;5.28;3.20;;;;;;;13.75;100.00;101419.31;10497825;28;20044;-72
2023/08/07 00:39:04;;;;;;;11.25;2.92;;;;;;;13.89;100.00;101428.34;10498519;28;20076;-71
2023/08/07 00:44:06;;;;;;;13.00;2.63;;;;;;;14.04;100.00;101426.28;10497248;28;20372;-72
2023/08/07 00:49:06;;;;;;;7.13;3.00;;;;;;;14.18;100.00;101413.50;10497873;28;20411;-72
2023/08/07 00:54:07;;;;;;;12.07;4.05;;;;;;;14.25;100.00;101429.84;10479118;28;20037;-72
2023/08/07 00:59:08;;;;;;;8.55;3.22;;;;;;;14.32;100.00;101427.97;10512932;28;20085;-71
2023/08/07 01:04:08;;;;;;;16.58;2.72;;;;;;;14.31;100.00;101429.03;10495757;28;20067;-70
2023/08/07 01:09:09;;;;;;;15.77;3.15;;;;;;;14.40;100.00;101436.78;10496725;28;20035;-71
2023/08/07 01:14:18;;;;;;;5.50;3.00;;;;;;;14.39;100.00;101423.38;10496053;28;20060;-71
2023/08/07 01:19:28;;;;;;;6.88;3.35;;;;;;;14.40;100.00;101436.78;10495268;28;20103;-72
2023/08/07 01:24:28;;;;;;;4.65;3.10;;;;;;;14.44;100.00;101437.19;10496220;28;20123;-70
2023/08/07 01:29:33;;;;;;;9.10;3.40;;;;;;;14.45;100.00;101438.03;10494375;28;20188;-71
2023/08/07 01:34:34;;;;;;;10.95;4.22;;;;;;;14.48;100.00;101438.44;10494129;28;20029;-72
2023/08/07 01:39:35;;;;;;;10.85;4.57;;;;;;;14.52;100.00;101436.19;10510988;28;20051;-72
2023/08/07 01:44:36;;;;;;;13.05;3.15;;;;;;;14.51;100.00;101432.59;10493744;28;20033;-71
2023/08/07 01:49:38;;;;;;;6.22;2.05;;;;;;;14.55;100.00;101435.75;10494140;28;20090;-72
2023/08/07 01:54:38;;;;;;;5.88;3.83;;;;;;;14.59;100.00;101428.84;10492545;28;20040;-71
2023/08/07 01:59:39;;;;;;;21.25;4.35;;;;;;;14.61;100.00;101437.63;10494734;28;20036;-71
2023/08/07 02:04:39;;;;;;;12.23;2.95;;;;;;;14.67;100.00;101439.50;10493756;28;20032;-73
2023/08/07 02:09:40;;;;;;;10.02;2.97;;;;;;;14.66;100.00;101448.75;10493819;28;20036;-71
2023/08/07 02:14:40;;;;;;;4.10;2.67;;;;;;;14.72;100.00;101449.78;10492396;28;20325;-72
2023/08/07 02:19:40;;;;;;;7.10;3.63;;;;;;;14.71;100.00;101440.78;10494486;28;20119;-72
2023/08/07 02:24:41;;;;;;;5.72;2.80;;;;;;;14.74;100.00;101455.84;10493564;28;20537;-72
2023/08/07 02:29:41;;;;;;;11.52;3.10;;;;;;;14.74;100.00;101454.00;10493930;28;20060;-71
2023/08/07 02:34:42;;;;;;;7.13;2.72;;;;;;;14.83;100.00;101452.69;10491947;28;20036;-71
2023/08/07 02:39:42;;;;;;;7.65;3.25;;;;;;;14.79;100.00;101450.63;10493860;28;20063;-72
2023/08/07 02:44:43;;;;;;;22.50;3.70;;;;;;;14.60;100.00;101453.16;10492487;28;20116;-72
2023/08/07 02:49:43;;;;;;;10.88;3.50;;;;;;;14.55;100.00;101458.41;10493628;28;20044;-72
2023/08/07 02:54:44;;;;;;;12.45;3.95;;;;;;;14.31;100.00;101473.44;10492823;28;20219;-71
2023/08/07 02:59:44;;;;;;;6.97;3.25;;;;;;;13.80;100.00;101460.38;10491586;28;20036;-71
2023/08/07 03:04:44;;;;;;;9.73;2.88;;;;;;;13.60;100.00;101454.03;10493410;28;20384;-71
2023/08/07 03:09:47;;;;;;;6.68;3.30;;;;;;;13.53;100.00;101475.78;10499143;28;20032;-72
2023/08/07 03:14:47;;;;;;;10.02;2.15;;;;;;;13.34;100.00;101469.19;10499534;28;20092;-71
2023/08/07 03:19:49;;;;;;;5.25;2.55;;;;;;;13.21;100.00;101463.66;10500779;28;20028;-71
2023/08/07 03:24:49;;;;;;;4.10;2.17;;;;;;;13.18;100.00;101469.50;10499759;28;20444;-71
2023/08/07 03:29:49;;;;;;;14.27;3.97;;;;;;;13.23;100.00;101472.44;10500294;28;20071;-72
2023/08/07 03:34:50;;;;;;;6.60;3.03;;;;;;;13.19;100.00;101466.56;10501202;28;20025;-73
2023/08/07 03:39:50;;;;;;;2.45;2.05;;;;;;;13.14;100.00;101457.34;10498771;28;20483;-73
2023/08/07 03:44:51;;;;;;;3.40;2.50;;;;;;;13.14;100.00;101460.88;10499590;28;20028;-72
2023/08/07 03:49:51;;;;;;;3.53;2.42;;;;;;;13.21;100.00;101453.63;10500094;28;20448;-72
2023/08/07 03:54:51;;;;;;;3.80;2.65;;;;;;;13.34;100.00;101462.94;10481781;28;20036;-72
2023/08/07 03:59:54;;;;;;;8.30;3.33;;;;;;;13.43;100.00;101458.97;10499797;28;20036;-72
2023/08/07 04:04:54;;;;;;;10.55;3.55;;;;;;;13.58;100.00;101453.38;10497944;28;20032;-71
2023/08/07 04:09:54;;;;;;;11.02;3.35;;;;;;;13.67;100.00;101446.72;10499140;28;20471;-72
2023/08/07 04:14:55;;;;;;;12.90;4.35;;;;;;;13.73;100.00;101460.34;10496131;28;20033;-72
2023/08/07 04:19:55;;;;;;;5.22;2.03;;;;;;;13.76;100.00;101461.81;10498458;28;20109;-71
2023/08/07 04:24:56;;;;;;;7.28;3.00;;;;;;;13.88;100.00;101473.81;10480430;28;20348;-72
2023/08/07 04:29:56;;;;;;;7.93;4.03;;;;;;;13.96;100.00;101472.75;10498625;28;20071;-72
2023/08/07 04:34:56;;;;;;;6.03;2.15;;;;;;;13.96;100.00;101476.31;10496471;28;20024;-74
2023/08/07 04:39:57;;;;;;;5.60;3.22;;;;;;;13.98;100.00;101489.75;10498286;28;20080;-71
2023/08/07 04:44:57;;;;;;;7.75;2.50;;;;;;;13.99;100.00;101493.31;10497161;28;20037;-72
2023/08/07 04:49:58;;;;;;;11.18;2.67;;;;;;;14.02;100.00;101495.63;10495801;28;20550;-73
2023/08/07 04:54:58;;;;;;;6.68;3.25;;;;;;;14.07;100.00;101490.38;10496082;28;20063;-71
2023/08/07 04:59:58;;;;;;;4.65;2.88;;;;;;;14.12;100.00;101507.78;10495853;28;20036;-70
2023/08/07 05:04:59;;;;;;;8.48;2.33;;;;;;;14.09;100.00;101501.91;10497090;28;20443;-71
2023/08/07 05:10:00;;;;;;;19.50;3.58;;;;;;;14.08;100.00;101502.97;10512406;28;20044;-70
2023/08/07 05:15:01;;;;;;;3.88;3.10;;;;;;;14.19;100.00;101505.91;10494016;28;20133;-71
2023/08/07 05:20:02;;;;;;;14.65;3.45;;;;;;;14.44;100.00;101516.22;10494827;28;20043;-72
2023/08/07 05:25:03;;;;;;;2.65;1.98;;;;;;;14.61;100.00;101511.22;10495490;28;20438;-72
2023/08/07 05:30:04;;;;;;;5.43;2.45;;;;;;;14.74;100.00;101510.38;10494726;28;20125;-71
2023/08/07 05:35:05;;;;;;;5.65;3.33;;;;;;;14.86;100.00;101508.69;10511492;28;20043;-72
2023/08/07 05:40:06;;;;;;;18.67;4.18;;;;;;;14.90;100.00;101518.16;10495840;28;20040;-71
2023/08/07 05:45:08;;;;;;;6.97;2.22;;;;;;;14.92;100.00;101526.94;10493389;28;20040;-71
2023/08/07 05:50:08;;;;;;;6.75;2.78;;;;;;;15.13;100.00;101528.63;10493160;28;20032;-72
2023/08/07 05:55:09;;;;;;;16.65;3.65;;;;;;;15.69;100.00;101532.69;10494125;28;20097;-72
2023/08/07 06:00:16;;;;;;;9.95;2.72;;;;;;;15.74;100.00;101535.63;10494799;28;20389;-71
2023/08/07 06:05:17;;;;;;;3.90;1.85;;;;;;;16.03;100.00;101535.03;10494381;28;20063;-72
2023/08/07 06:10:17;;;;;;;3.55;1.92;;;;;;;16.83;100.00;101533.69;10494299;28;20507;-70
2023/08/07 06:15:17;;;;;;;8.07;2.67;;;;;;;17.66;100.00;101542.31;10492083;28;20043;-72
2023/08/07 06:20:18;;;;;;;7.60;2.47;;;;;;;17.84;100.00;101548.88;10492482;28;20113;-72
2023/08/07 06:25:19;;;;;;;1.55;1.35;;;;;;;18.22;100.00;101553.22;10493676;28;20048;-72
2023/08/07 06:30:19;;;;;;;4.00;3.33;;;;;;;18.01;100.00;101557.31;10493573;28;20483;-72
2023/08/07 06:35:20;;;;;;;3.03;2.33;;;;;;;18.74;100.00;101546.13;10493593;28;20090;-72
2023/08/07 06:40:20;;;;;;;6.82;3.15;;;;;;;18.70;100.00;101553.13;10494361;28;20056;-71
2023/08/07 06:45:20;;;;;;;12.05;3.33;;;;;;;18.50;100.00;101566.31;10491269;28;20037;-70
2023/08/07 06:50:21;;;;;;;17.50;2.75;;;;;;;17.57;100.00;101572.97;10492478;28;20048;-71
2023/08/07 06:55:22;;;;;;;2.80;1.67;;;;;;;17.13;100.00;101581.22;10492688;28;20452;-71
2023/08/07 07:00:22;;;;;;;6.22;2.95;;;;;;;18.20;100.00;101578.13;10492006;28;20085;-71
2023/08/07 07:05:22;;;;;;;7.97;2.97;;;;;;;20.03;100.00;101580.91;10490877;28;20041;-71
2023/08/07 07:10:23;;;;;;;4.43;1.92;;;;;;;20.53;100.00;101585.78;10491577;28;20115;-70
2023/08/07 07:15:23;;;;;;;5.28;2.38;;;;;;;18.48;100.00;101585.75;10474729;28;20371;-71
2023/08/07 07:20:24;;;;;;;13.35;3.22;;;;;;;18.38;100.00;101587.38;10491224;28;20380;-71
2023/08/07 07:25:24;;;;;;;6.15;2.63;;;;;;;20.39;100.00;101596.22;10491612;28;20044;-72
2023/08/07 07:30:24;;;;;;;1.70;1.58;;;;;;;21.73;100.00;101588.22;10492043;28;20029;-72
2023/08/07 07:35:26;;;;;;;10.10;3.05;;;;;;;22.71;100.00;101596.53;10492350;28;20032;-70
2023/08/07 07:40:26;;;;;;;1.83;1.70;;;;;;;23.41;100.00;101605.69;10491625;28;20057;-72
2023/08/07 07:45:26;;;;;;;2.33;1.83;;;;;;;23.25;100.00;101604.75;10491216;28;20063;-70
2023/08/07 07:50:27;;;;;;;2.63;1.77;;;;;;;22.78;100.00;101607.38;10492127;28;20029;-70
2023/08/07 07:55:27;;;;;;;11.43;2.47;;;;;;;21.52;100.00;101621.03;10494910;28;20040;-71
2023/08/07 08:00:28;;;;;;;4.07;1.77;;;;;;;22.32;100.00;101613.25;10497918;28;20033;-70
2023/08/07 08:05:28;;;;;;;3.50;2.05;;;;;;;21.16;100.00;101632.56;10498144;28;20121;-71
2023/08/07 08:10:29;;;;;;;8.52;2.40;;;;;;;20.45;100.00;101638.41;10498757;28;20556;-70
2023/08/07 08:15:30;;;;;;;2.10;1.90;;;;;;;21.34;99.83;101629.53;10498050;28;20495;-71
2023/08/07 08:20:31;;;;;;;1.50;1.50;;;;;;;22.79;100.00;101642.19;10496600;28;20032;-70
2023/08/07 08:25:32;;;;;;;3.25;2.20;;;;;;;23.56;100.00;101643.66;10480367;28;20047;-71
2023/08/07 08:30:33;;;;;;;1.88;1.73;;;;;;;24.35;100.00;101649.06;10497001;28;20049;-72
2023/08/07 08:35:33;;;;;;;2.95;1.67;;;;;;;24.32;98.02;101652.38;10479958;28;20056;-70
2023/08/07 08:40:33;;;;;;;5.70;1.08;;;;;;;23.72;96.86;101664.00;10498333;28;20136;-69
2023/08/07 08:45:36;;;;;;;6.43;2.80;;;;;;;22.89;98.80;101662.44;10479631;28;20032;-71
2023/08/07 08:50:36;;;;;;;2.13;1.67;;;;;;;23.17;100.00;101675.16;10496224;28;20043;-71
2023/08/07 08:55:37;;;;;;;2.03;1.92;;;;;;;23.18;100.00;101676.00;10497025;28;20032;-71
2023/08/07 09:00:37;;;;;;;2.92;2.15;;;;;;;22.77;89.98;101692.13;10479127;28;20462;-70
2023/08/07 09:05:38;;;;;;;6.75;2.40;;;;;;;23.01;100.00;101680.81;10511567;28;20488;-70
2023/08/07 09:10:38;;;;;;;3.20;1.70;;;;;;;24.01;99.69;101687.38;10478719;28;20044;-70
2023/08/07 09:15:39;;;;;;;1.80;1.70;;;;;;;22.58;91.44;101688.06;10494133;28;20078;-71
2023/08/07 09:20:40;;;;;;;4.80;1.80;;;;;;;23.35;84.88;101690.50;10511911;28;20029;-71
2023/08/07 09:25:40;;;;;;;1.92;1.67;;;;;;;24.25;72.51;101685.03;10494359;28;20032;-71
2023/08/07 09:30:42;;;;;;;3.83;2.38;;;;;;;24.31;71.23;101696.91;10494374;28;20031;-70
2023/08/07 09:35:42;;;;;;;2.88;1.63;;;;;;;24.94;89.31;101689.38;10493544;28;20491;-69
2023/08/07 09:40:43;;;;;;;2.70;2.15;;;;;;;24.55;70.94;101697.34;10494636;28;20056;-69
2023/08/07 09:45:43;;;;;;;3.33;1.92;;;;;;;24.93;85.65;101709.91;10494449;28;20121;-70
2023/08/07 09:50:44;;;;;;;1.42;1.42;;;;;;;24.50;81.66;101705.63;10495153;28;20608;-68
2023/08/07 09:55:44;;;;;;;2.17;2.08;;;;;;;24.30;71.16;101712.69;10493565;28;20036;-70
2023/08/07 10:00:48;;;;;;;1.40;1.30;;;;;;;24.34;84.52;101704.69;10494038;28;20040;-70
2023/08/07 10:05:49;;;;;;;13.48;2.50;;;;;;;24.44;79.34;101709.47;10495049;28;20040;-70
2023/08/07 10:10:49;;;;;;;8.45;2.63;;;;;;;24.48;75.32;101716.97;10492983;28;20059;-71
2023/08/07 10:15:50;;;;;;;1.13;1.02;;;;;;;23.73;68.29;101719.00;10492935;28;20060;-70
2023/08/07 10:20:50;;;;;;;2.30;1.60;;;;;;;23.28;83.67;101730.50;10492995;28;20495;-70
2023/08/07 10:25:50;;;;;;;1.63;1.52;;;;;;;24.51;76.29;101721.97;10493384;28;20032;-70
2023/08/07 10:30:51;;;;;;;1.75;1.65;;;;;;;25.53;64.07;101721.34;10475895;28;20120;-71
2023/08/07 10:35:52;;;;;;;2.83;1.90;;;;;;;25.89;74.64;101718.53;10508525;28;20369;-70
2023/08/07 10:41:00;;;;;;;3.35;2.30;;;;;;;26.20;66.54;101725.66;10475147;28;20045;-70
2023/08/07 10:46:21;;;;;;;9.50;2.53;;;;;;;26.29;63.71;101730.63;10493194;28;20053;-70
2023/08/07 10:51:21;;;;;;;2.13;1.95;;;;;;;26.32;69.95;101721.72;10492199;28;20036;-71
2023/08/07 10:56:35;;;;;;;2.28;1.90;;;;;;;26.30;67.30;101727.59;10491653;28;20036;-70
2023/08/07 11:01:39;;;;;;;1.50;1.48;;;;;;;26.16;50.98;101720.94;10493177;28;20029;-70
2023/08/07 11:06:40;;;;;;;2.03;1.83;;;;;;;26.26;56.44;101720.94;10493151;28;20525;-70
2023/08/07 11:11:45;;;;;;;1.83;1.73;;;;;;;26.34;56.20;101730.63;10491962;28;20028;-69
2023/08/07 11:16:46;;;;;;;1.85;1.73;;;;;;;25.95;62.34;101723.78;10474697;28;20263;-69
2023/08/07 11:21:47;;;;;;;4.82;3.17;;;;;;;25.54;64.36;101739.63;10492542;28;20048;-70
2023/08/07 11:26:47;;;;;;;3.28;2.00;;;;;;;25.19;65.70;101726.59;10491417;28;20020;-69
2023/08/07 11:31:48;;;;;;;2.67;1.50;;;;;;;25.47;64.30;101720.50;10501893;28;20044;-71
2023/08/07 11:36:48;;;;;;;4.55;1.70;;;;;;;24.28;71.12;101728.78;10499804;28;20475;-70
2023/08/07 11:41:52;;;;;;;16.58;2.67;;;;;;;24.37;62.90;101723.53;10499592;28;20109;-69
2023/08/07 11:46:52;;;;;;;6.68;1.98;;;;;;;23.10;63.46;101726.19;10499712;28;20094;-69
2023/08/07 11:51:53;;;;;;;3.50;2.10;;;;;;;24.48;69.18;101725.28;10500015;28;20098;-70
2023/08/07 11:56:53;;;;;;;4.40;2.38;;;;;;;24.26;65.71;101730.97;10482024;28;20103;-72
2023/08/07 12:01:53;;;;;;;8.07;2.03;;;;;;;23.84;67.17;101729.06;10499776;28;20047;-71
2023/08/07 12:06:54;;;;;;;22.33;2.70;;;;;;;22.98;75.07;101727.19;10500035;28;20089;-70
2023/08/07 12:11:58;;;;;;;2.30;1.92;;;;;;;23.26;60.22;101722.50;10497964;28;20028;-69
2023/08/07 12:17:01;;;;;;;16.13;3.03;;;;;;;22.13;70.52;101728.59;10497024;28;20044;-69
2023/08/07 12:22:04;;;;;;;8.30;2.28;;;;;;;22.39;73.82;101721.50;10498959;28;20040;-70
2023/08/07 12:27:05;;;;;;;5.20;2.10;;;;;;;22.14;78.40;101712.88;10498654;28;20436;-69
2023/08/07 12:32:06;;;;;;;4.65;3.03;;;;;;;21.75;77.77;101723.88;10498492;28;20380;-69
2023/08/07 12:37:06;;;;;;;2.20;2.00;;;;;;;21.52;69.61;101717.47;10480054;28;20035;-71
2023/08/07 12:42:07;;;;;;;8.30;3.08;;;;;;;20.98;76.74;101727.25;10498015;28;20088;-70
2023/08/07 12:47:07;;;;;;;7.03;2.50;;;;;;;19.65;77.02;101738.94;10497661;28;20132;-70
2023/08/07 12:52:08;;;;;;;7.75;3.70;;;;;;;17.82;96.70;101751.00;10497187;28;20067;-68
2023/08/07 12:57:08;;;;;;;4.45;2.85;;;;;;;17.05;100.00;101742.09;10497121;28;20039;-68
2023/08/07 13:02:08;;;;;;;5.35;3.38;;;;;;;17.66;100.00;101730.47;10497609;28;20124;-69
2023/08/07 13:07:09;;;;;;;6.63;3.42;;;;;;;19.34;100.00;101733.75;10496489;28;20487;-69
2023/08/07 13:12:09;;;;;;;7.63;2.60;;;;;;;20.72;100.00;101735.00;10496518;28;20116;-68
2023/08/07 13:17:10;;;;;;;2.85;2.60;;;;;;;21.57;100.00;101741.53;10496489;28;20033;-68
2023/08/07 13:22:10;;;;;;;3.58;2.47;;;;;;;21.47;100.00;101730.34;10496958;28;20043;-67
2023/08/07 13:27:10;;;;;;;1.88;1.80;;;;;;;21.43;100.00;101731.91;10494939;28;20105;-71
2023/08/07 13:32:11;;;;;;;6.68;2.25;;;;;;;21.43;100.00;101732.75;10496558;28;20059;-70
2023/08/07 13:37:12;;;;;;;2.33;1.85;;;;;;;20.97;100.00;101739.34;10477636;28;20068;-69
2023/08/07 13:42:12;;;;;;;2.05;1.95;;;;;;;22.13;100.00;101730.50;10493358;28;20053;-69
2023/08/07 13:47:12;;;;;;;3.38;2.10;;;;;;;22.13;100.00;101731.34;10494955;28;20097;-71
2023/08/07 13:52:13;;;;;;;5.43;1.92;;;;;;;22.38;100.00;101722.59;10492875;28;20130;-71
2023/08/07 13:57:13;;;;;;;2.05;1.80;;;;;;;21.81;100.00;101734.75;10494183;28;20033;-69
2023/08/07 14:02:14;;;;;;;1.40;1.40;;;;;;;22.46;100.00;101735.13;10494469;28;20396;-70
2023/08/07 14:07:14;;;;;;;11.07;2.70;;;;;;;22.36;100.00;101735.81;10494405;28;20405;-72
2023/08/07 14:12:14;;;;;;;1.20;1.15;;;;;;;21.91;100.00;101730.47;10494319;28;20037;-70
2023/08/07 14:17:15;;;;;;;2.15;1.55;;;;;;;22.61;100.00;101732.53;10493854;28;20434;-70
2023/08/07 14:22:15;;;;;;;1.88;1.65;;;;;;;23.02;100.00;101734.97;10494013;28;20119;-70
2023/08/07 14:27:15;;;;;;;1.67;1.48;;;;;;;22.57;95.92;101728.63;10493255;28;20026;-71
2023/08/07 14:32:16;;;;;;;1.98;1.77;;;;;;;22.25;100.00;101748.66;10492946;28;20122;-70
2023/08/07 14:37:16;;;;;;;9.90;1.58;;;;;;;22.79;97.82;101747.94;10493714;28;20048;-71
2023/08/07 14:42:17;;;;;;;2.92;1.88;;;;;;;22.70;94.43;101755.03;10493895;28;20084;-72
2023/08/07 14:47:17;;;;;;;1.80;1.70;;;;;;;21.80;100.00;101748.78;10491737;28;20048;-71
2023/08/07 14:52:17;;;;;;;4.35;1.45;;;;;;;21.05;100.00;101764.56;10494270;28;20040;-71
2023/08/07 14:57:18;;;;;;;1.73;1.63;;;;;;;20.96;100.00;101770.69;10493250;28;20028;-70
2023/08/07 15:02:18;;;;;;;7.13;1.90;;;;;;;21.10;100.00;101759.16;10492522;28;20028;-71
2023/08/07 15:07:19;;;;;;;2.63;1.55;;;;;;;21.35;100.00;101757.97;10502056;28;20033;-69
2023/08/07 15:12:19;;;;;;;2.97;1.75;;;;;;;21.03;100.00;101760.41;10500539;28;20491;-71
2023/08/07 15:17:19;;;;;;;5.50;1.35;;;;;;;21.32;100.00;101747.41;10499927;28;20064;-70
2023/08/07 15:22:20;;;;;;;1.38;1.30;;;;;;;20.84;100.00;101765.25;10501233;28;20045;-70
2023/08/07 15:27:20;;;;;;;1.25;1.23;;;;;;;20.75;100.00;101755.72;10500925;28;20063;-70
2023/08/07 15:32:21;;;;;;;6.35;1.48;;;;;;;20.27;100.00;101765.97;10500596;28;20067;-70
2023/08/07 15:37:21;;;;;;;1.30;1.30;;;;;;;20.18;100.00;101770.97;10500427;28;20274;-71
2023/08/07 15:42:21;;;;;;;2.67;1.67;;;;;;;19.90;100.00;101760.69;10498412;28;20049;-69
2023/08/07 15:47:22;;;;;;;6.45;2.15;;;;;;;19.76;100.00;101756.53;10499599;28;20094;-71
2023/08/07 15:52:22;;;;;;;12.65;2.22;;;;;;;19.63;100.00;101751.22;10498472;28;20102;-71
2023/08/07 15:57:24;;;;;;;10.90;2.90;;;;;;;19.20;100.00;101757.81;10499773;28;20036;-71
2023/08/07 16:02:24;;;;;;;4.45;2.10;;;;;;;19.40;100.00;101757.50;10499063;28;20519;-71
2023/08/07 16:07:25;;;;;;;1.70;1.60;;;;;;;19.34;100.00;101742.81;10499678;28;20041;-71
2023/08/07 16:12:25;;;;;;;2.05;1.95;;;;;;;19.33;100.00;101746.63;10499835;28;20024;-70
2023/08/07 16:17:26;;;;;;;2.22;1.60;;;;;;;19.39;100.00;101734.69;10497383;28;20039;-70
2023/08/07 16:22:26;;;;;;;1.45;1.38;;;;;;;19.21;100.00;101743.03;10498797;28;20432;-71
2023/08/07 16:27:26;;;;;;;5.32;1.88;;;;;;;19.05;100.00;101733.56;10496974;28;20434;-69
2023/08/07 16:32:27;;;;;;;2.83;2.35;;;;;;;19.00;100.00;101736.97;10497788;28;20036;-70
2023/08/07 16:37:28;;;;;;;1.55;1.50;;;;;;;19.20;100.00;101742.16;10498957;28;20071;-70
2023/08/07 16:42:28;;;;;;;3.72;2.72;;;;;;;18.99;100.00;101724.34;10496435;28;20044;-70
2023/08/07 16:47:28;;;;;;;4.68;1.88;;;;;;;18.85;100.00;101717.34;10497912;28;20078;-71
2023/08/07 16:52:29;;;;;;;2.45;2.10;;;;;;;18.66;100.00;101719.25;10497255;28;20120;-71
2023/08/07 16:57:29;;;;;;;3.42;2.45;;;;;;;18.69;100.00;101720.72;10495934;28;20037;-72
2023/08/07 17:02:30;;;;;;;1.95;1.85;;;;;;;18.47;100.00;101701.16;10495613;28;20040;-71
2023/08/07 17:07:30;;;;;;;4.10;1.77;;;;;;;18.30;100.00;101699.03;10497142;28;20037;-71
2023/08/07 17:12:30;;;;;;;2.10;1.95;;;;;;;18.36;100.00;101700.88;10496995;28;20463;-72
2023/08/07 17:17:31;;;;;;;4.55;1.67;;;;;;;18.40;100.00;101706.72;10495450;28;20044;-71
2023/08/07 17:22:31;;;;;;;3.53;1.55;;;;;;;18.19;100.00;101699.81;10494865;28;20044;-71
2023/08/07 17:27:32;;;;;;;4.57;2.22;;;;;;;18.01;100.00;101702.56;10496237;28;20033;-70
2023/08/07 17:32:32;;;;;;;4.07;1.77;;;;;;;17.83;100.00;101703.38;10496601;28;20086;-71
2023/08/07 17:37:33;;;;;;;2.55;1.85;;;;;;;17.81;100.00;101692.66;10494942;28;20111;-71
2023/08/07 17:42:33;;;;;;;3.40;2.00;;;;;;;17.88;100.00;101679.72;10478394;28;20190;-70
2023/08/07 17:47:33;;;;;;;1.52;1.42;;;;;;;18.15;100.00;101681.31;10494621;28;20032;-70
2023/08/07 17:52:34;;;;;;;2.60;1.13;;;;;;;18.31;100.00;101672.47;10511050;28;20033;-71
2023/08/07 17:57:34;;;;;;;2.88;1.52;;;;;;;18.12;100.00;101660.66;10494909;28;20032;-70
2023/08/07 18:02:34;;;;;;;3.13;2.17;;;;;;;17.86;100.00;101662.66;10494803;28;20115;-70
2023/08/07 18:07:36;;;;;;;1.38;1.30;;;;;;;17.73;100.00;101662.75;10493890;28;20040;-70
2023/08/07 18:12:36;;;;;;;2.80;1.55;;;;;;;17.63;100.00;101652.31;10493316;28;20038;-72
2023/08/07 18:17:37;;;;;;;7.32;1.77;;;;;;;17.46;100.00;101650.41;10494137;28;20036;-71
2023/08/07 18:22:38;;;;;;;2.38;2.05;;;;;;;17.32;100.00;101644.19;10493399;28;20139;-70
2023/08/07 18:27:38;;;;;;;1.95;1.80;;;;;;;17.22;100.00;101636.50;10493198;28;20094;-71
2023/08/07 18:32:40;;;;;;;1.98;1.85;;;;;;;17.24;100.00;101639.84;10494141;28;20067;-70
2023/08/07 18:37:41;;;;;;;6.18;1.90;;;;;;;17.22;100.00;101644.69;10493279;28;20524;-71
2023/08/07 18:42:42;;;;;;;5.65;1.80;;;;;;;17.16;100.00;101643.69;10489258;28;20061;-75
2023/08/07 18:47:43;;;;;;;6.82;2.80;;;;;;;17.18;100.00;101624.31;10494097;28;20063;-75
2023/08/07 18:52:43;;;;;;;6.25;2.58;;;;;;;17.12;100.00;101628.78;10494157;28;20068;-74
2023/08/07 18:57:43;;;;;;;3.97;1.92;;;;;;;17.03;100.00;101624.66;10493014;28;20077;-73
2023/08/07 19:02:45;;;;;;;1.73;1.63;;;;;;;16.93;100.00;101627.03;10494175;28;20044;-75
2023/08/07 19:07:45;;;;;;;7.50;2.40;;;;;;;16.85;100.00;101619.13;10492163;28;20032;-69
2023/08/07 19:12:46;;;;;;;11.98;2.45;;;;;;;16.67;100.00;101612.47;10493377;28;20036;-73
2023/08/07 19:17:46;;;;;;;1.63;1.52;;;;;;;16.55;100.00;101613.38;10490163;28;20052;-72
2023/08/07 19:22:46;;;;;;;1.75;1.65;;;;;;;16.44;100.00;101599.38;10493368;28;20041;-73
2023/08/07 19:27:47;;;;;;;3.35;2.45;;;;;;;16.47;100.00;101600.81;10491747;28;20072;-72
2023/08/07 19:32:47;;;;;;;2.85;2.55;;;;;;;16.57;100.00;101606.66;10493121;28;20375;-75
2023/08/07 19:37:48;;;;;;;9.75;1.85;;;;;;;16.69;100.00;101598.59;10494069;28;20033;-73
2023/08/07 19:42:48;;;;;;;5.47;2.40;;;;;;;16.70;100.00;101595.63;10491235;28;20064;-72
2023/08/07 19:47:48;;;;;;;2.97;2.33;;;;;;;16.60;100.00;101600.75;10489633;28;20444;-70
2023/08/07 19:52:49;;;;;;;6.93;2.83;;;;;;;16.57;100.00;101595.72;10498646;28;20044;-75
2023/08/07 19:57:49;;;;;;;7.63;2.88;;;;;;;16.54;100.00;101584.38;10499152;28;20519;-70
2023/08/07 20:02:50;;;;;;;4.57;2.75;;;;;;;16.60;100.00;101583.50;10497624;28;20032;-71
2023/08/07 20:07:50;;;;;;;4.22;2.03;;;;;;;16.70;100.00;101581.09;10498767;28;20029;-71
2023/08/07 20:12:51;;;;;;;11.38;1.95;;;;;;;16.73;100.00;101567.00;10498612;28;20071;-74
2023/08/07 20:17:52;;;;;;;3.72;2.80;;;;;;;16.58;100.00;101570.03;10513598;28;20027;-74
2023/08/07 20:22:52;;;;;;;4.18;2.20;;;;;;;16.42;100.00;101565.09;10496822;28;20436;-72
2023/08/07 20:27:53;;;;;;;8.63;3.38;;;;;;;16.34;100.00;101558.00;10496620;28;20040;-71
2023/08/07 20:32:53;;;;;;;7.63;3.40;;;;;;;16.24;100.00;101550.28;10497677;28;20032;-71
2023/08/07 20:37:53;;;;;;;9.50;3.80;;;;;;;16.12;100.00;101552.03;10496773;28;20535;-72
2023/08/07 20:42:54;;;;;;;6.63;3.20;;;;;;;16.12;100.00;101545.75;10497113;28;20056;-72
2023/08/07 20:47:54;;;;;;;5.45;2.80;;;;;;;16.10;100.00;101520.53;10495962;28;20029;-73
2023/08/07 20:52:55;;;;;;;17.05;4.55;;;;;;;16.02;100.00;101516.16;10497518;28;20036;-71
2023/08/07 20:57:55;;;;;;;12.00;2.58;;;;;;;15.89;100.00;101514.34;10497071;28;20040;-71
2023/08/07 21:02:55;;;;;;;10.32;3.88;;;;;;;15.82;100.00;101513.50;10494445;28;20064;-71
2023/08/07 21:07:56;;;;;;;8.23;3.17;;;;;;;15.83;100.00;101512.47;10496921;28;20032;-71
2023/08/07 21:12:56;;;;;;;4.88;3.33;;;;;;;15.83;100.00;101504.28;10495585;28;20028;-72
2023/08/07 21:17:58;;;;;;;5.35;2.30;;;;;;;15.84;100.00;101495.03;10495013;28;20439;-71
2023/08/07 21:22:58;;;;;;;12.68;4.80;;;;;;;15.85;100.00;101509.50;10496791;28;20036;-71
2023/08/07 21:27:58;;;;;;;7.43;3.60;;;;;;;15.82;100.00;101499.84;10494962;28;20779;-71
2023/08/07 21:32:59;;;;;;;9.95;3.58;;;;;;;15.87;100.00;101502.78;10494342;28;20056;-71
2023/08/07 21:37:59;;;;;;;8.65;3.55;;;;;;;15.88;100.00;101493.53;10496077;28;20407;-71
2023/08/07 21:43:00;;;;;;;9.57;3.08;;;;;;;15.94;100.00;101489.09;10493851;28;20059;-71
2023/08/07 21:48:00;;;;;;;12.23;4.43;;;;;;;15.93;100.00;101482.78;10495186;28;20040;-71
2023/08/07 21:53:00;;;;;;;16.60;4.10;;;;;;;15.91;100.00;101471.22;10495495;28;20403;-71
2023/08/07 21:58:01;;;;;;;13.23;4.13;;;;;;;15.90;100.00;101463.28;10495467;28;20060;-71
2023/08/07 22:03:01;;;;;;;16.10;5.13;;;;;;;15.88;100.00;101458.00;10494375;28;20119;-72
2023/08/07 22:08:02;;;;;;;6.22;2.85;;;;;;;15.88;100.00;101449.81;10494720;28;20040;-70
2023/08/07 22:13:02;;;;;;;6.13;4.30;;;;;;;15.84;100.00;101458.69;10492618;28;20036;-71
2023/08/07 22:18:03;;;;;;;6.07;3.63;;;;;;;15.82;100.00;101456.16;10492588;28;20020;-70
2023/08/07 22:23:04;;;;;;;3.35;3.05;;;;;;;15.98;100.00;101441.13;10492986;28;20036;-72
2023/08/07 22:28:05;;;;;;;9.15;2.75;;;;;;;16.07;100.00;101437.09;10492560;28;20506;-71
2023/08/07 22:33:05;;;;;;;15.35;3.78;;;;;;;16.14;100.00;101442.50;10493769;28;20035;-71
2023/08/07 22:38:06;;;;;;;8.88;3.97;;;;;;;16.32;100.00;101428.09;10493399;28;20044;-71
2023/08/07 22:43:06;;;;;;;7.53;2.47;;;;;;;16.54;100.00;101426.63;10493013;28;20075;-70
2023/08/07 22:48:06;;;;;;;6.53;4.43;;;;;;;16.60;100.00;101419.44;10492690;28;20461;-71